sensor_id;sensor_type;location;lat;lon;timestamp;P1;durP1;ratioP1;P2;durP2;ratioP2
72373;SDS011;60349;64.132;-21.820;2022-12-29T00:01:41;2.67;;;0.00;;
72373;SDS011;60349;64.132;-21.820;2022-12-29T00:04:09;1.02;;;0.00;;
72373;SDS011;60349;64.132;-21.820;2022-12-29T00:06:37;0.55;;;0.00;;
72373;SDS011;60349;64.132;-21.820;2022-12-29T00:09:03;4.00;;;0.00;;
72373;SDS011;60349;64.132;-21.820;2022-12-29T00:11:29;0.20;;;0.00;;
72373;SDS011;60349;64.132;-21.820;2022-12-29T00:13:55;0.40;;;0.10;;
72373;SDS011;60349;64.132;-21.820;2022-12-29T00:16:44;0.65;;;0.00;;
72373;SDS011;60349;64.132;-21.820;2022-12-29T00:19:11;0.93;;;0.00;;
72373;SDS011;60349;64.132;-21.820;2022-12-29T00:21:57;0.28;;;0.00;;
72373;SDS011;60349;64.132;-21.820;2022-12-29T00:24:43;7.53;;;0.00;;
72373;SDS011;60349;64.132;-21.820;2022-12-29T00:27:28;1.08;;;0.00;;
72373;SDS011;60349;64.132;-21.820;2022-12-29T00:30:14;0.17;;;0.00;;
72373;SDS011;60349;64.132;-21.820;2022-12-29T00:32:59;3.50;;;0.00;;
72373;SDS011;60349;64.132;-21.820;2022-12-29T00:35:45;3.42;;;0.00;;
72373;SDS011;60349;64.132;-21.820;2022-12-29T00:38:11;2.75;;;0.30;;
72373;SDS011;60349;64.132;-21.820;2022-12-29T00:40:57;1.55;;;0.20;;
72373;SDS011;60349;64.132;-21.820;2022-12-29T00:43:41;1.60;;;0.52;;
72373;SDS011;60349;64.132;-21.820;2022-12-29T00:46:26;1.40;;;0.20;;
72373;SDS011;60349;64.132;-21.820;2022-12-29T00:48:52;1.40;;;0.20;;
72373;SDS011;60349;64.132;-21.820;2022-12-29T00:51:36;1.42;;;0.20;;
72373;SDS011;60349;64.132;-21.820;2022-12-29T00:54:03;1.00;;;0.10;;
72373;SDS011;60349;64.132;-21.820;2022-12-29T00:56:29;0.82;;;0.10;;
72373;SDS011;60349;64.132;-21.820;2022-12-29T00:58:55;2.50;;;0.10;;
72373;SDS011;60349;64.132;-21.820;2022-12-29T01:01:21;3.30;;;0.10;;
72373;SDS011;60349;64.132;-21.820;2022-12-29T01:03:47;0.93;;;0.10;;
72373;SDS011;60349;64.132;-21.820;2022-12-29T01:06:13;1.00;;;0.10;;
72373;SDS011;60349;64.132;-21.820;2022-12-29T01:08:40;1.95;;;0.10;;
72373;SDS011;60349;64.132;-21.820;2022-12-29T01:11:07;0.82;;;0.10;;
72373;SDS011;60349;64.132;-21.820;2022-12-29T01:13:33;0.75;;;0.08;;
72373;SDS011;60349;64.132;-21.820;2022-12-29T01:16:00;1.02;;;0.10;;
72373;SDS011;60349;64.132;-21.820;2022-12-29T01:18:26;0.90;;;0.00;;
72373;SDS011;60349;64.132;-21.820;2022-12-29T01:21:05;1.00;;;0.00;;
72373;SDS011;60349;64.132;-21.820;2022-12-29T01:23:32;1.83;;;0.10;;
72373;SDS011;60349;64.132;-21.820;2022-12-29T01:26:08;0.70;;;0.00;;
72373;SDS011;60349;64.132;-21.820;2022-12-29T01:28:34;0.93;;;0.10;;
72373;SDS011;60349;64.132;-21.820;2022-12-29T01:31:00;0.52;;;0.00;;
72373;SDS011;60349;64.132;-21.820;2022-12-29T01:33:27;0.80;;;0.00;;
72373;SDS011;60349;64.132;-21.820;2022-12-29T01:35:53;0.98;;;0.00;;
72373;SDS011;60349;64.132;-21.820;2022-12-29T01:38:19;1.05;;;0.22;;
72373;SDS011;60349;64.132;-21.820;2022-12-29T01:40:46;0.45;;;0.00;;
72373;SDS011;60349;64.132;-21.820;2022-12-29T01:43:13;0.60;;;0.00;;
72373;SDS011;60349;64.132;-21.820;2022-12-29T01:45:44;0.43;;;0.00;;
72373;SDS011;60349;64.132;-21.820;2022-12-29T01:48:11;0.52;;;0.00;;
72373;SDS011;60349;64.132;-21.820;2022-12-29T01:50:39;0.30;;;0.00;;
72373;SDS011;60349;64.132;-21.820;2022-12-29T01:53:13;0.38;;;0.00;;
72373;SDS011;60349;64.132;-21.820;2022-12-29T01:55:44;1.50;;;0.00;;
72373;SDS011;60349;64.132;-21.820;2022-12-29T01:58:12;0.63;;;0.00;;
72373;SDS011;60349;64.132;-21.820;2022-12-29T02:00:38;0.45;;;0.00;;
72373;SDS011;60349;64.132;-21.820;2022-12-29T02:03:05;0.50;;;0.00;;
72373;SDS011;60349;64.132;-21.820;2022-12-29T02:05:39;1.92;;;0.00;;
72373;SDS011;60349;64.132;-21.820;2022-12-29T02:08:09;0.40;;;0.00;;
72373;SDS011;60349;64.132;-21.820;2022-12-29T02:10:37;0.47;;;0.00;;
72373;SDS011;60349;64.132;-21.820;2022-12-29T02:13:03;0.30;;;0.00;;
72373;SDS011;60349;64.132;-21.820;2022-12-29T02:15:44;1.23;;;0.00;;
72373;SDS011;60349;64.132;-21.820;2022-12-29T02:28:27;0.28;;;0.00;;
72373;SDS011;60349;64.132;-21.820;2022-12-29T02:31:08;0.43;;;0.00;;
72373;SDS011;60349;64.132;-21.820;2022-12-29T02:38:41;0.30;;;0.00;;
72373;SDS011;60349;64.132;-21.820;2022-12-29T02:48:46;0.30;;;0.00;;
72373;SDS011;60349;64.132;-21.820;2022-12-29T02:51:18;0.10;;;0.00;;
72373;SDS011;60349;64.132;-21.820;2022-12-29T02:53:45;0.17;;;0.00;;
72373;SDS011;60349;64.132;-21.820;2022-12-29T02:56:30;0.65;;;0.00;;
72373;SDS011;60349;64.132;-21.820;2022-12-29T02:58:56;0.20;;;0.00;;
72373;SDS011;60349;64.132;-21.820;2022-12-29T03:01:31;0.30;;;0.00;;
72373;SDS011;60349;64.132;-21.820;2022-12-29T03:06:54;0.55;;;0.00;;
72373;SDS011;60349;64.132;-21.820;2022-12-29T03:17:38;0.03;;;0.00;;
72373;SDS011;60349;64.132;-21.820;2022-12-29T03:20:10;0.10;;;0.00;;
72373;SDS011;60349;64.132;-21.820;2022-12-29T03:22:41;1.15;;;0.00;;
72373;SDS011;60349;64.132;-21.820;2022-12-29T03:25:20;0.17;;;0.00;;
72373;SDS011;60349;64.132;-21.820;2022-12-29T03:27:53;0.20;;;0.00;;
72373;SDS011;60349;64.132;-21.820;2022-12-29T03:30:20;0.05;;;0.00;;
72373;SDS011;60349;64.132;-21.820;2022-12-29T03:32:49;0.45;;;0.20;;
72373;SDS011;60349;64.132;-21.820;2022-12-29T03:35:16;0.28;;;0.00;;
72373;SDS011;60349;64.132;-21.820;2022-12-29T03:37:44;0.20;;;0.00;;
72373;SDS011;60349;64.132;-21.820;2022-12-29T03:40:12;0.20;;;0.00;;
72373;SDS011;60349;64.132;-21.820;2022-12-29T03:42:38;0.77;;;0.00;;
72373;SDS011;60349;64.132;-21.820;2022-12-29T03:45:05;0.10;;;0.00;;
72373;SDS011;60349;64.132;-21.820;2022-12-29T03:47:32;0.10;;;0.00;;
72373;SDS011;60349;64.132;-21.820;2022-12-29T03:49:58;2.45;;;0.00;;
72373;SDS011;60349;64.132;-21.820;2022-12-29T03:52:24;0.10;;;0.00;;
72373;SDS011;60349;64.132;-21.820;2022-12-29T03:54:50;0.28;;;0.00;;
72373;SDS011;60349;64.132;-21.820;2022-12-29T03:57:16;0.20;;;0.00;;
72373;SDS011;60349;64.132;-21.820;2022-12-29T03:59:42;1.25;;;0.00;;
72373;SDS011;60349;64.132;-21.820;2022-12-29T04:02:08;0.10;;;0.00;;
72373;SDS011;60349;64.132;-21.820;2022-12-29T04:04:34;0.35;;;0.00;;
72373;SDS011;60349;64.132;-21.820;2022-12-29T04:07:01;1.23;;;0.10;;
72373;SDS011;60349;64.132;-21.820;2022-12-29T04:09:27;0.25;;;0.00;;
72373;SDS011;60349;64.132;-21.820;2022-12-29T04:11:54;0.40;;;0.00;;
72373;SDS011;60349;64.132;-21.820;2022-12-29T04:14:20;0.40;;;0.00;;
72373;SDS011;60349;64.132;-21.820;2022-12-29T04:16:46;0.32;;;0.00;;
72373;SDS011;60349;64.132;-21.820;2022-12-29T04:19:13;0.20;;;0.00;;
72373;SDS011;60349;64.132;-21.820;2022-12-29T04:21:39;0.65;;;0.00;;
72373;SDS011;60349;64.132;-21.820;2022-12-29T04:24:05;0.00;;;0.00;;
72373;SDS011;60349;64.132;-21.820;2022-12-29T04:26:32;0.03;;;0.00;;
72373;SDS011;60349;64.132;-21.820;2022-12-29T04:28:58;0.40;;;0.00;;
72373;SDS011;60349;64.132;-21.820;2022-12-29T04:31:24;1.33;;;0.00;;
72373;SDS011;60349;64.132;-21.820;2022-12-29T04:33:50;0.25;;;0.00;;
72373;SDS011;60349;64.132;-21.820;2022-12-29T04:36:16;0.32;;;0.00;;
72373;SDS011;60349;64.132;-21.820;2022-12-29T04:38:42;0.28;;;0.00;;
72373;SDS011;60349;64.132;-21.820;2022-12-29T04:41:08;1.27;;;0.00;;
72373;SDS011;60349;64.132;-21.820;2022-12-29T04:43:34;0.20;;;0.00;;
72373;SDS011;60349;64.132;-21.820;2022-12-29T04:46:01;0.77;;;0.00;;
72373;SDS011;60349;64.132;-21.820;2022-12-29T04:48:27;0.43;;;0.00;;
72373;SDS011;60349;64.132;-21.820;2022-12-29T04:50:53;0.60;;;0.00;;
72373;SDS011;60349;64.132;-21.820;2022-12-29T04:53:19;0.20;;;0.00;;
72373;SDS011;60349;64.132;-21.820;2022-12-29T04:55:48;0.00;;;0.00;;
72373;SDS011;60349;64.132;-21.820;2022-12-29T04:58:14;0.20;;;0.00;;
72373;SDS011;60349;64.132;-21.820;2022-12-29T05:00:40;0.43;;;0.00;;
72373;SDS011;60349;64.132;-21.820;2022-12-29T05:03:06;0.25;;;0.00;;
72373;SDS011;60349;64.132;-21.820;2022-12-29T05:05:32;1.17;;;0.00;;
72373;SDS011;60349;64.132;-21.820;2022-12-29T05:07:58;0.20;;;0.00;;
72373;SDS011;60349;64.132;-21.820;2022-12-29T05:10:24;0.00;;;0.00;;
72373;SDS011;60349;64.132;-21.820;2022-12-29T05:12:50;0.28;;;0.00;;
72373;SDS011;60349;64.132;-21.820;2022-12-29T05:15:17;0.45;;;0.00;;
72373;SDS011;60349;64.132;-21.820;2022-12-29T05:17:43;0.93;;;0.00;;
72373;SDS011;60349;64.132;-21.820;2022-12-29T05:20:09;0.47;;;0.00;;
72373;SDS011;60349;64.132;-21.820;2022-12-29T05:22:35;0.63;;;0.00;;
72373;SDS011;60349;64.132;-21.820;2022-12-29T05:25:02;0.80;;;0.00;;
72373;SDS011;60349;64.132;-21.820;2022-12-29T05:27:28;0.57;;;0.00;;
72373;SDS011;60349;64.132;-21.820;2022-12-29T05:29:54;0.80;;;0.00;;
72373;SDS011;60349;64.132;-21.820;2022-12-29T05:32:20;0.73;;;0.00;;
72373;SDS011;60349;64.132;-21.820;2022-12-29T05:34:46;0.28;;;0.00;;
72373;SDS011;60349;64.132;-21.820;2022-12-29T05:37:12;0.10;;;0.00;;
72373;SDS011;60349;64.132;-21.820;2022-12-29T05:39:38;0.50;;;0.00;;
72373;SDS011;60349;64.132;-21.820;2022-12-29T05:42:04;0.28;;;0.00;;
72373;SDS011;60349;64.132;-21.820;2022-12-29T05:44:31;0.20;;;0.00;;
72373;SDS011;60349;64.132;-21.820;2022-12-29T05:46:57;0.65;;;0.00;;
72373;SDS011;60349;64.132;-21.820;2022-12-29T05:49:23;0.40;;;0.00;;
72373;SDS011;60349;64.132;-21.820;2022-12-29T05:51:49;0.35;;;0.00;;
72373;SDS011;60349;64.132;-21.820;2022-12-29T05:54:15;0.00;;;0.00;;
72373;SDS011;60349;64.132;-21.820;2022-12-29T05:56:41;0.43;;;0.00;;
72373;SDS011;60349;64.132;-21.820;2022-12-29T05:59:07;3.50;;;0.00;;
72373;SDS011;60349;64.132;-21.820;2022-12-29T06:01:33;0.10;;;0.00;;
72373;SDS011;60349;64.132;-21.820;2022-12-29T06:04:00;0.63;;;0.00;;
72373;SDS011;60349;64.132;-21.820;2022-12-29T06:06:26;0.03;;;0.00;;
72373;SDS011;60349;64.132;-21.820;2022-12-29T06:08:52;0.68;;;0.00;;
72373;SDS011;60349;64.132;-21.820;2022-12-29T06:11:18;0.20;;;0.00;;
72373;SDS011;60349;64.132;-21.820;2022-12-29T06:13:44;0.20;;;0.00;;
72373;SDS011;60349;64.132;-21.820;2022-12-29T06:16:10;0.20;;;0.00;;
72373;SDS011;60349;64.132;-21.820;2022-12-29T06:18:36;0.05;;;0.00;;
72373;SDS011;60349;64.132;-21.820;2022-12-29T06:21:03;0.20;;;0.00;;
72373;SDS011;60349;64.132;-21.820;2022-12-29T06:23:29;0.17;;;0.00;;
72373;SDS011;60349;64.132;-21.820;2022-12-29T06:25:56;1.55;;;0.00;;
72373;SDS011;60349;64.132;-21.820;2022-12-29T06:28:22;0.60;;;0.00;;
72373;SDS011;60349;64.132;-21.820;2022-12-29T06:30:48;0.08;;;0.00;;
72373;SDS011;60349;64.132;-21.820;2022-12-29T06:33:15;0.85;;;0.00;;
72373;SDS011;60349;64.132;-21.820;2022-12-29T06:35:42;0.10;;;0.00;;
72373;SDS011;60349;64.132;-21.820;2022-12-29T06:38:08;0.17;;;0.00;;
72373;SDS011;60349;64.132;-21.820;2022-12-29T06:40:34;0.20;;;0.00;;
72373;SDS011;60349;64.132;-21.820;2022-12-29T06:43:00;0.20;;;0.00;;
72373;SDS011;60349;64.132;-21.820;2022-12-29T06:45:26;0.20;;;0.00;;
72373;SDS011;60349;64.132;-21.820;2022-12-29T06:47:52;0.20;;;0.00;;
72373;SDS011;60349;64.132;-21.820;2022-12-29T06:50:18;0.20;;;0.00;;
72373;SDS011;60349;64.132;-21.820;2022-12-29T06:52:44;0.73;;;0.00;;
72373;SDS011;60349;64.132;-21.820;2022-12-29T06:55:10;0.50;;;0.00;;
72373;SDS011;60349;64.132;-21.820;2022-12-29T06:57:37;0.30;;;0.00;;
72373;SDS011;60349;64.132;-21.820;2022-12-29T07:00:03;0.17;;;0.00;;
72373;SDS011;60349;64.132;-21.820;2022-12-29T07:02:30;1.48;;;0.00;;
72373;SDS011;60349;64.132;-21.820;2022-12-29T07:04:56;0.08;;;0.00;;
72373;SDS011;60349;64.132;-21.820;2022-12-29T07:07:22;0.50;;;0.00;;
72373;SDS011;60349;64.132;-21.820;2022-12-29T07:09:48;1.67;;;0.25;;
72373;SDS011;60349;64.132;-21.820;2022-12-29T07:12:14;5.03;;;0.30;;
72373;SDS011;60349;64.132;-21.820;2022-12-29T07:14:40;13.10;;;6.88;;
72373;SDS011;60349;64.132;-21.820;2022-12-29T07:17:06;24.58;;;13.88;;
72373;SDS011;60349;64.132;-21.820;2022-12-29T07:19:33;24.90;;;13.40;;
72373;SDS011;60349;64.132;-21.820;2022-12-29T07:21:59;17.83;;;10.63;;
72373;SDS011;60349;64.132;-21.820;2022-12-29T07:24:26;19.02;;;10.18;;
72373;SDS011;60349;64.132;-21.820;2022-12-29T07:26:52;16.98;;;8.75;;
72373;SDS011;60349;64.132;-21.820;2022-12-29T07:29:18;17.65;;;8.98;;
72373;SDS011;60349;64.132;-21.820;2022-12-29T07:31:44;15.02;;;8.35;;
72373;SDS011;60349;64.132;-21.820;2022-12-29T07:34:10;17.80;;;8.52;;
72373;SDS011;60349;64.132;-21.820;2022-12-29T07:36:36;16.10;;;8.57;;
72373;SDS011;60349;64.132;-21.820;2022-12-29T07:39:03;12.65;;;7.00;;
72373;SDS011;60349;64.132;-21.820;2022-12-29T07:41:29;13.93;;;7.00;;
72373;SDS011;60349;64.132;-21.820;2022-12-29T07:43:55;13.35;;;6.57;;
72373;SDS011;60349;64.132;-21.820;2022-12-29T07:46:21;12.32;;;6.50;;
72373;SDS011;60349;64.132;-21.820;2022-12-29T07:48:47;15.23;;;5.88;;
72373;SDS011;60349;64.132;-21.820;2022-12-29T07:51:13;11.63;;;5.72;;
72373;SDS011;60349;64.132;-21.820;2022-12-29T07:53:39;10.65;;;5.40;;
72373;SDS011;60349;64.132;-21.820;2022-12-29T07:56:06;10.60;;;4.45;;
72373;SDS011;60349;64.132;-21.820;2022-12-29T07:58:32;10.63;;;4.60;;
72373;SDS011;60349;64.132;-21.820;2022-12-29T08:00:58;6.95;;;3.42;;
72373;SDS011;60349;64.132;-21.820;2022-12-29T08:03:24;6.65;;;3.00;;
72373;SDS011;60349;64.132;-21.820;2022-12-29T08:05:51;13.63;;;5.88;;
72373;SDS011;60349;64.132;-21.820;2022-12-29T08:08:17;24.05;;;9.25;;
72373;SDS011;60349;64.132;-21.820;2022-12-29T08:10:43;28.48;;;12.05;;
72373;SDS011;60349;64.132;-21.820;2022-12-29T08:13:09;26.13;;;13.32;;
72373;SDS011;60349;64.132;-21.820;2022-12-29T08:15:37;43.10;;;20.70;;
72373;SDS011;60349;64.132;-21.820;2022-12-29T08:18:04;51.72;;;26.17;;
72373;SDS011;60349;64.132;-21.820;2022-12-29T08:20:30;43.30;;;21.60;;
72373;SDS011;60349;64.132;-21.820;2022-12-29T08:22:56;52.55;;;27.30;;
72373;SDS011;60349;64.132;-21.820;2022-12-29T08:25:22;50.53;;;25.00;;
72373;SDS011;60349;64.132;-21.820;2022-12-29T08:27:48;38.67;;;20.17;;
72373;SDS011;60349;64.132;-21.820;2022-12-29T08:30:14;36.17;;;18.80;;
72373;SDS011;60349;64.132;-21.820;2022-12-29T08:32:41;32.60;;;16.75;;
72373;SDS011;60349;64.132;-21.820;2022-12-29T08:35:07;31.13;;;14.80;;
72373;SDS011;60349;64.132;-21.820;2022-12-29T08:37:34;31.23;;;16.00;;
72373;SDS011;60349;64.132;-21.820;2022-12-29T08:40:00;31.33;;;17.00;;
72373;SDS011;60349;64.132;-21.820;2022-12-29T08:42:29;32.17;;;17.42;;
72373;SDS011;60349;64.132;-21.820;2022-12-29T08:44:56;36.60;;;18.27;;
72373;SDS011;60349;64.132;-21.820;2022-12-29T08:47:22;35.83;;;17.25;;
72373;SDS011;60349;64.132;-21.820;2022-12-29T08:49:48;28.38;;;14.85;;
72373;SDS011;60349;64.132;-21.820;2022-12-29T08:52:15;25.48;;;14.30;;
72373;SDS011;60349;64.132;-21.820;2022-12-29T08:54:41;25.50;;;13.48;;
72373;SDS011;60349;64.132;-21.820;2022-12-29T08:57:07;25.05;;;13.50;;
72373;SDS011;60349;64.132;-21.820;2022-12-29T08:59:33;22.33;;;11.77;;
72373;SDS011;60349;64.132;-21.820;2022-12-29T09:01:59;24.80;;;12.52;;
72373;SDS011;60349;64.132;-21.820;2022-12-29T09:04:26;20.75;;;11.38;;
72373;SDS011;60349;64.132;-21.820;2022-12-29T09:06:53;20.13;;;11.13;;
72373;SDS011;60349;64.132;-21.820;2022-12-29T09:09:19;20.70;;;10.43;;
72373;SDS011;60349;64.132;-21.820;2022-12-29T09:11:45;18.75;;;9.73;;
72373;SDS011;60349;64.132;-21.820;2022-12-29T09:14:12;18.92;;;9.75;;
72373;SDS011;60349;64.132;-21.820;2022-12-29T09:16:38;18.50;;;9.50;;
72373;SDS011;60349;64.132;-21.820;2022-12-29T09:19:04;22.10;;;10.13;;
72373;SDS011;60349;64.132;-21.820;2022-12-29T09:21:30;19.92;;;9.63;;
72373;SDS011;60349;64.132;-21.820;2022-12-29T09:23:56;17.67;;;9.15;;
72373;SDS011;60349;64.132;-21.820;2022-12-29T09:26:22;18.33;;;8.45;;
72373;SDS011;60349;64.132;-21.820;2022-12-29T09:28:48;17.25;;;7.75;;
72373;SDS011;60349;64.132;-21.820;2022-12-29T09:31:14;17.90;;;9.30;;
72373;SDS011;60349;64.132;-21.820;2022-12-29T09:33:41;21.10;;;11.02;;
72373;SDS011;60349;64.132;-21.820;2022-12-29T09:36:07;22.48;;;10.50;;
72373;SDS011;60349;64.132;-21.820;2022-12-29T09:38:34;21.58;;;10.50;;
72373;SDS011;60349;64.132;-21.820;2022-12-29T09:41:01;20.17;;;10.60;;
72373;SDS011;60349;64.132;-21.820;2022-12-29T09:48:45;21.25;;;10.57;;
72373;SDS011;60349;64.132;-21.820;2022-12-29T09:51:15;23.77;;;10.95;;
72373;SDS011;60349;64.132;-21.820;2022-12-29T09:53:42;17.13;;;8.57;;
72373;SDS011;60349;64.132;-21.820;2022-12-29T09:56:16;19.92;;;10.18;;
72373;SDS011;60349;64.132;-21.820;2022-12-29T09:58:45;16.70;;;7.95;;
72373;SDS011;60349;64.132;-21.820;2022-12-29T10:01:39;17.48;;;8.23;;
72373;SDS011;60349;64.132;-21.820;2022-12-29T10:04:02;16.42;;;7.78;;
72373;SDS011;60349;64.132;-21.820;2022-12-29T10:06:36;14.02;;;6.22;;
72373;SDS011;60349;64.132;-21.820;2022-12-29T10:16:31;17.55;;;9.20;;
72373;SDS011;60349;64.132;-21.820;2022-12-29T10:23:58;16.15;;;7.90;;
72373;SDS011;60349;64.132;-21.820;2022-12-29T10:26:30;17.40;;;8.45;;
72373;SDS011;60349;64.132;-21.820;2022-12-29T10:28:58;17.35;;;8.90;;
72373;SDS011;60349;64.132;-21.820;2022-12-29T10:31:29;20.33;;;8.95;;
72373;SDS011;60349;64.132;-21.820;2022-12-29T10:33:59;14.82;;;7.43;;
72373;SDS011;60349;64.132;-21.820;2022-12-29T10:39:04;13.00;;;6.57;;
72373;SDS011;60349;64.132;-21.820;2022-12-29T10:41:39;14.55;;;6.78;;
72373;SDS011;60349;64.132;-21.820;2022-12-29T10:44:09;15.18;;;7.97;;
72373;SDS011;60349;64.132;-21.820;2022-12-29T10:46:37;13.98;;;7.03;;
72373;SDS011;60349;64.132;-21.820;2022-12-29T10:49:04;15.23;;;7.25;;
72373;SDS011;60349;64.132;-21.820;2022-12-29T10:51:32;27.65;;;13.05;;
72373;SDS011;60349;64.132;-21.820;2022-12-29T10:54:04;29.73;;;14.13;;
72373;SDS011;60349;64.132;-21.820;2022-12-29T10:56:47;30.60;;;15.57;;
72373;SDS011;60349;64.132;-21.820;2022-12-29T11:01:50;38.45;;;18.65;;
72373;SDS011;60349;64.132;-21.820;2022-12-29T11:06:48;43.60;;;23.50;;
72373;SDS011;60349;64.132;-21.820;2022-12-29T11:09:16;44.78;;;23.92;;
72373;SDS011;60349;64.132;-21.820;2022-12-29T11:11:44;36.22;;;20.55;;
72373;SDS011;60349;64.132;-21.820;2022-12-29T11:14:18;37.58;;;19.38;;
72373;SDS011;60349;64.132;-21.820;2022-12-29T11:16:44;32.88;;;17.45;;
72373;SDS011;60349;64.132;-21.820;2022-12-29T11:19:25;30.20;;;16.35;;
72373;SDS011;60349;64.132;-21.820;2022-12-29T11:21:51;29.65;;;15.73;;
72373;SDS011;60349;64.132;-21.820;2022-12-29T11:24:21;27.50;;;14.88;;
72373;SDS011;60349;64.132;-21.820;2022-12-29T11:26:49;33.28;;;17.23;;
72373;SDS011;60349;64.132;-21.820;2022-12-29T11:34:44;37.88;;;19.80;;
72373;SDS011;60349;64.132;-21.820;2022-12-29T11:37:04;35.90;;;18.70;;
72373;SDS011;60349;64.132;-21.820;2022-12-29T11:39:36;34.70;;;18.85;;
72373;SDS011;60349;64.132;-21.820;2022-12-29T11:42:04;34.53;;;18.27;;
72373;SDS011;60349;64.132;-21.820;2022-12-29T11:44:38;32.53;;;16.38;;
72373;SDS011;60349;64.132;-21.820;2022-12-29T11:47:08;40.22;;;19.13;;
72373;SDS011;60349;64.132;-21.820;2022-12-29T11:49:36;40.50;;;22.17;;
72373;SDS011;60349;64.132;-21.820;2022-12-29T11:52:03;49.78;;;23.98;;
72373;SDS011;60349;64.132;-21.820;2022-12-29T11:54:31;42.95;;;22.52;;
72373;SDS011;60349;64.132;-21.820;2022-12-29T11:56:58;42.90;;;20.65;;
72373;SDS011;60349;64.132;-21.820;2022-12-29T12:02:00;39.95;;;21.20;;
72373;SDS011;60349;64.132;-21.820;2022-12-29T12:04:29;40.28;;;20.92;;
72373;SDS011;60349;64.132;-21.820;2022-12-29T12:06:58;42.85;;;21.13;;
72373;SDS011;60349;64.132;-21.820;2022-12-29T12:09:31;43.15;;;20.27;;
72373;SDS011;60349;64.132;-21.820;2022-12-29T12:11:58;39.40;;;20.40;;
72373;SDS011;60349;64.132;-21.820;2022-12-29T12:14:27;42.03;;;20.33;;
72373;SDS011;60349;64.132;-21.820;2022-12-29T12:17:06;34.20;;;18.50;;
72373;SDS011;60349;64.132;-21.820;2022-12-29T12:19:40;30.70;;;16.27;;
72373;SDS011;60349;64.132;-21.820;2022-12-29T12:27:37;28.08;;;13.93;;
72373;SDS011;60349;64.132;-21.820;2022-12-29T12:35:11;24.27;;;13.25;;
72373;SDS011;60349;64.132;-21.820;2022-12-29T12:45:08;19.10;;;9.25;;
72373;SDS011;60349;64.132;-21.820;2022-12-29T12:48:41;18.83;;;10.18;;
72373;SDS011;60349;64.132;-21.820;2022-12-29T12:53:29;27.95;;;13.60;;
72373;SDS011;60349;64.132;-21.820;2022-12-29T12:56:41;29.40;;;15.65;;
72373;SDS011;60349;64.132;-21.820;2022-12-29T13:04:06;32.00;;;15.73;;
72373;SDS011;60349;64.132;-21.820;2022-12-29T13:07:13;33.08;;;17.30;;
72373;SDS011;60349;64.132;-21.820;2022-12-29T13:14:58;32.03;;;16.35;;
72373;SDS011;60349;64.132;-21.820;2022-12-29T13:24:54;28.10;;;15.52;;
72373;SDS011;60349;64.132;-21.820;2022-12-29T13:27:25;29.05;;;15.60;;
72373;SDS011;60349;64.132;-21.820;2022-12-29T13:30:03;29.85;;;16.90;;
72373;SDS011;60349;64.132;-21.820;2022-12-29T13:37:47;29.05;;;14.25;;
72373;SDS011;60349;64.132;-21.820;2022-12-29T13:40:15;27.70;;;12.55;;
72373;SDS011;60349;64.132;-21.820;2022-12-29T13:42:42;23.95;;;12.93;;
72373;SDS011;60349;64.132;-21.820;2022-12-29T13:45:16;23.85;;;12.80;;
72373;SDS011;60349;64.132;-21.820;2022-12-29T13:47:51;21.35;;;11.38;;
72373;SDS011;60349;64.132;-21.820;2022-12-29T13:50:20;19.00;;;10.48;;
72373;SDS011;60349;64.132;-21.820;2022-12-29T13:55:45;16.10;;;8.65;;
72373;SDS011;60349;64.132;-21.820;2022-12-29T13:58:15;17.65;;;9.52;;
72373;SDS011;60349;64.132;-21.820;2022-12-29T14:00:46;17.75;;;9.20;;
72373;SDS011;60349;64.132;-21.820;2022-12-29T14:08:42;31.05;;;16.58;;
72373;SDS011;60349;64.132;-21.820;2022-12-29T14:11:12;38.55;;;22.73;;
72373;SDS011;60349;64.132;-21.820;2022-12-29T14:13:40;39.42;;;23.30;;
72373;SDS011;60349;64.132;-21.820;2022-12-29T14:16:10;37.78;;;21.35;;
72373;SDS011;60349;64.132;-21.820;2022-12-29T14:18:41;38.67;;;22.20;;
72373;SDS011;60349;64.132;-21.820;2022-12-29T14:21:10;38.83;;;21.88;;
72373;SDS011;60349;64.132;-21.820;2022-12-29T14:23:38;37.03;;;21.13;;
72373;SDS011;60349;64.132;-21.820;2022-12-29T14:28:34;39.47;;;23.33;;
72373;SDS011;60349;64.132;-21.820;2022-12-29T14:31:01;46.50;;;27.30;;
72373;SDS011;60349;64.132;-21.820;2022-12-29T14:33:29;53.38;;;29.02;;
72373;SDS011;60349;64.132;-21.820;2022-12-29T14:35:56;59.25;;;31.77;;
72373;SDS011;60349;64.132;-21.820;2022-12-29T14:38:26;67.13;;;36.88;;
72373;SDS011;60349;64.132;-21.820;2022-12-29T14:40:53;67.93;;;38.17;;
72373;SDS011;60349;64.132;-21.820;2022-12-29T14:43:39;72.70;;;38.80;;
72373;SDS011;60349;64.132;-21.820;2022-12-29T14:46:05;70.80;;;39.20;;
72373;SDS011;60349;64.132;-21.820;2022-12-29T14:48:34;77.15;;;41.28;;
72373;SDS011;60349;64.132;-21.820;2022-12-29T14:51:01;67.07;;;37.75;;
72373;SDS011;60349;64.132;-21.820;2022-12-29T14:53:44;66.47;;;37.60;;
72373;SDS011;60349;64.132;-21.820;2022-12-29T14:56:11;62.85;;;33.65;;
72373;SDS011;60349;64.132;-21.820;2022-12-29T14:58:41;60.53;;;32.97;;
72373;SDS011;60349;64.132;-21.820;2022-12-29T15:03:57;56.27;;;31.97;;
72373;SDS011;60349;64.132;-21.820;2022-12-29T15:06:27;52.15;;;29.13;;
72373;SDS011;60349;64.132;-21.820;2022-12-29T15:09:03;53.85;;;28.77;;
72373;SDS011;60349;64.132;-21.820;2022-12-29T15:16:50;51.70;;;27.27;;
72373;SDS011;60349;64.132;-21.820;2022-12-29T15:19:22;46.70;;;24.75;;
72373;SDS011;60349;64.132;-21.820;2022-12-29T15:21:49;46.90;;;23.80;;
72373;SDS011;60349;64.132;-21.820;2022-12-29T15:24:15;43.45;;;24.55;;
72373;SDS011;60349;64.132;-21.820;2022-12-29T15:26:45;42.83;;;23.67;;
72373;SDS011;60349;64.132;-21.820;2022-12-29T15:32:00;38.65;;;20.67;;
72373;SDS011;60349;64.132;-21.820;2022-12-29T15:34:29;38.65;;;21.42;;
72373;SDS011;60349;64.132;-21.820;2022-12-29T15:36:55;33.25;;;18.83;;
72373;SDS011;60349;64.132;-21.820;2022-12-29T15:39:31;32.80;;;17.20;;
72373;SDS011;60349;64.132;-21.820;2022-12-29T15:44:28;30.95;;;16.73;;
72373;SDS011;60349;64.132;-21.820;2022-12-29T15:46:55;28.25;;;15.50;;
72373;SDS011;60349;64.132;-21.820;2022-12-29T15:49:21;28.77;;;15.57;;
72373;SDS011;60349;64.132;-21.820;2022-12-29T15:51:49;28.98;;;15.05;;
72373;SDS011;60349;64.132;-21.820;2022-12-29T15:54:16;31.95;;;17.55;;
72373;SDS011;60349;64.132;-21.820;2022-12-29T15:56:43;31.45;;;16.40;;
72373;SDS011;60349;64.132;-21.820;2022-12-29T16:01:50;57.55;;;30.65;;
72373;SDS011;60349;64.132;-21.820;2022-12-29T16:04:17;56.80;;;30.42;;
72373;SDS011;60349;64.132;-21.820;2022-12-29T16:06:57;57.85;;;29.95;;
72373;SDS011;60349;64.132;-21.820;2022-12-29T16:11:59;58.30;;;32.00;;
72373;SDS011;60349;64.132;-21.820;2022-12-29T16:14:31;58.35;;;31.75;;
72373;SDS011;60349;64.132;-21.820;2022-12-29T16:16:59;57.05;;;31.13;;
72373;SDS011;60349;64.132;-21.820;2022-12-29T16:21:53;49.38;;;27.27;;
72373;SDS011;60349;64.132;-21.820;2022-12-29T16:24:22;46.47;;;26.42;;
72373;SDS011;60349;64.132;-21.820;2022-12-29T16:26:59;51.85;;;27.48;;
72373;SDS011;60349;64.132;-21.820;2022-12-29T16:29:28;46.00;;;25.88;;
72373;SDS011;60349;64.132;-21.820;2022-12-29T16:31:56;44.90;;;24.05;;
72373;SDS011;60349;64.132;-21.820;2022-12-29T16:41:58;39.60;;;20.98;;
72373;SDS011;60349;64.132;-21.820;2022-12-29T16:44:25;38.58;;;20.60;;
72373;SDS011;60349;64.132;-21.820;2022-12-29T16:47:02;39.00;;;20.17;;
72373;SDS011;60349;64.132;-21.820;2022-12-29T16:49:30;35.33;;;18.38;;